createdAt,value
2017-11-03T00:00:13.828Z,9.5
2017-11-03T00:01:16.203Z,9.4
2017-11-03T00:02:18.571Z,9.4
2017-11-03T00:03:20.945Z,9.4
2017-11-03T00:04:23.319Z,9.4
2017-11-03T00:05:25.694Z,9.5
2017-11-03T00:06:28.054Z,9.5
2017-11-03T00:07:30.440Z,9.4
2017-11-03T00:08:33.157Z,9.5
2017-11-03T00:09:35.533Z,9.4
2017-11-03T00:10:37.914Z,9.4
2017-11-03T00:11:40.286Z,9.4
2017-11-03T00:12:43.023Z,9.4
2017-11-03T00:13:45.398Z,9.4
2017-11-03T00:14:47.763Z,9.4
2017-11-03T00:15:50.147Z,9.4
2017-11-03T00:16:52.515Z,9.4
2017-11-03T00:17:54.874Z,9.4
2017-11-03T00:18:57.600Z,9.4
2017-11-03T00:19:59.974Z,9.4
2017-11-03T00:21:02.352Z,9.4
2017-11-03T00:22:04.726Z,9.4
2017-11-03T00:23:07.442Z,9.4
2017-11-03T00:24:09.810Z,9.4
2017-11-03T00:25:12.547Z,9.4
2017-11-03T00:26:14.921Z,9.4
2017-11-03T00:27:17.283Z,9.4
2017-11-03T00:28:19.661Z,9.4
2017-11-03T00:29:22.025Z,9.4
2017-11-03T00:30:24.406Z,9.4
2017-11-03T00:31:26.775Z,9.4
2017-11-03T00:32:29.136Z,9.4
2017-11-03T00:33:31.865Z,9.4
2017-11-03T00:34:34.602Z,9.4
2017-11-03T00:35:37.695Z,9.4
2017-11-03T00:36:40.415Z,9.4
2017-11-03T00:37:42.786Z,9.4
2017-11-03T00:38:45.161Z,9.4
2017-11-03T00:39:47.552Z,9.4
2017-11-03T00:40:49.918Z,9.4
2017-11-03T00:41:52.280Z,9.4
2017-11-03T00:42:54.652Z,9.4
2017-11-03T00:43:57.019Z,9.4
2017-11-03T00:44:59.399Z,9.4
2017-11-03T00:46:01.773Z,9.5
2017-11-03T00:47:04.133Z,9.4
2017-11-03T00:48:06.880Z,9.4
2017-11-03T00:49:09.251Z,9.4
2017-11-03T00:50:11.620Z,9.4
2017-11-03T00:51:14.005Z,9.4
2017-11-03T00:52:16.636Z,9.4
2017-11-03T00:53:19.007Z,9.4
2017-11-03T00:54:21.382Z,9.4
2017-11-03T00:55:23.754Z,9.4
2017-11-03T00:56:26.129Z,9.4
2017-11-03T00:57:28.515Z,9.4
2017-11-03T00:58:30.890Z,9.4
2017-11-03T00:59:33.270Z,9.4
2017-11-03T01:00:35.637Z,9.4
2017-11-03T01:01:38.008Z,9.4
2017-11-03T01:02:40.379Z,9.4
2017-11-03T01:03:42.750Z,9.4
2017-11-03T01:04:45.122Z,9.4
2017-11-03T01:05:47.508Z,9.4
2017-11-03T01:06:49.874Z,9.4
2017-11-03T01:07:52.250Z,9.4
2017-11-03T01:08:54.624Z,9.4
2017-11-03T01:09:56.996Z,9.4
2017-11-03T01:10:59.368Z,9.4
2017-11-03T01:12:01.745Z,9.4
2017-11-03T01:13:04.107Z,9.4
2017-11-03T01:14:06.486Z,9.4
2017-11-03T01:15:08.874Z,9.4
2017-11-03T01:16:11.237Z,9.4
2017-11-03T01:17:13.616Z,9.5
2017-11-03T01:18:15.986Z,9.4
2017-11-03T01:19:18.364Z,9.4
2017-11-03T01:20:20.745Z,9.4
2017-11-03T01:21:23.474Z,9.4
2017-11-03T01:22:26.188Z,9.5
2017-11-03T01:23:28.571Z,9.5
2017-11-03T01:24:30.940Z,9.5
2017-11-03T01:25:33.323Z,9.5
2017-11-03T01:26:35.695Z,9.5
2017-11-03T01:27:38.065Z,9.5
2017-11-03T01:28:40.434Z,9.5
2017-11-03T01:29:42.819Z,9.5
2017-11-03T01:30:45.572Z,9.5
2017-11-03T01:31:47.950Z,9.5
2017-11-03T01:32:50.325Z,9.5
2017-11-03T01:33:52.700Z,9.5
2017-11-03T01:34:55.071Z,9.5
2017-11-03T01:35:57.806Z,9.5
2017-11-03T01:37:00.168Z,9.5
2017-11-03T01:38:02.553Z,9.5
2017-11-03T01:39:04.936Z,9.5
2017-11-03T01:40:07.312Z,9.5
2017-11-03T01:41:09.686Z,9.5
2017-11-03T01:42:12.407Z,9.5
2017-11-03T01:43:14.784Z,9.5
2017-11-03T01:44:17.163Z,9.5
2017-11-03T01:45:19.537Z,9.5
2017-11-03T01:46:21.914Z,9.4
2017-11-03T01:47:24.277Z,9.5
2017-11-03T01:48:26.633Z,9.4
2017-11-03T01:49:29.015Z,9.4
2017-11-03T01:50:31.740Z,9.4
2017-11-03T01:51:34.118Z,9.4
2017-11-03T01:52:36.492Z,9.4
2017-11-03T01:53:38.863Z,9.4
2017-11-03T01:54:41.598Z,9.4
2017-11-03T01:55:44.329Z,9.4
2017-11-03T01:56:46.700Z,9.4
2017-11-03T01:57:49.411Z,9.4
2017-11-03T01:58:51.797Z,9.4
2017-11-03T01:59:54.170Z,9.4
2017-11-03T02:00:56.552Z,9.4
2017-11-03T02:01:59.278Z,9.4
2017-11-03T02:03:01.692Z,9.4
2017-11-03T02:04:04.066Z,9.4
2017-11-03T02:05:06.797Z,9.4
2017-11-03T02:06:09.162Z,9.4
2017-11-03T02:07:11.529Z,9.4
2017-11-03T02:08:14.255Z,9.4
2017-11-03T02:09:16.622Z,9.4
2017-11-03T02:10:19.011Z,9.4
2017-11-03T02:11:21.379Z,9.4
2017-11-03T02:12:23.734Z,9.4
2017-11-03T02:13:26.114Z,9.4
2017-11-03T02:14:28.843Z,9.4
2017-11-03T02:15:31.205Z,9.4
2017-11-03T02:16:33.582Z,9.4
2017-11-03T02:17:35.957Z,9.4
2017-11-03T02:18:38.333Z,9.4
2017-11-03T02:19:40.689Z,9.4
2017-11-03T02:20:43.078Z,9.3
2017-11-03T02:21:45.447Z,9.3
2017-11-03T02:22:47.827Z,9.3
2017-11-03T02:23:50.207Z,9.3
2017-11-03T02:24:52.582Z,9.3
2017-11-03T02:25:54.963Z,9.3
2017-11-03T02:26:57.338Z,9.3
2017-11-03T02:27:59.702Z,9.2
2017-11-03T02:29:02.077Z,9.2
2017-11-03T02:30:04.441Z,9.2
2017-11-03T02:31:06.813Z,9.2
2017-11-03T02:32:09.180Z,9.1
2017-11-03T02:33:11.550Z,9.1
2017-11-03T02:34:13.927Z,9.1
2017-11-03T02:35:16.300Z,9
2017-11-03T02:36:18.673Z,9
2017-11-03T02:37:21.057Z,8.9
2017-11-03T02:38:23.436Z,8.9
2017-11-03T02:39:25.819Z,8.9
2017-11-03T02:40:28.184Z,8.8
2017-11-03T02:41:30.560Z,8.8
2017-11-03T02:42:32.932Z,8.8
2017-11-03T02:43:35.310Z,8.7
2017-11-03T02:44:38.021Z,8.6
2017-11-03T02:45:40.410Z,8.6
2017-11-03T02:46:42.787Z,8.6
2017-11-03T02:47:45.155Z,8.6
2017-11-03T02:48:47.533Z,8.5
2017-11-03T02:49:49.902Z,8.5
2017-11-03T02:50:52.280Z,8.4
2017-11-03T02:51:54.660Z,8.4
2017-11-03T02:52:57.022Z,8.3
2017-11-03T02:53:59.385Z,8.3
2017-11-03T02:55:01.764Z,8.3
2017-11-03T02:56:04.131Z,8.2
2017-11-03T02:57:06.501Z,8.1
2017-11-03T02:58:08.878Z,8.1
2017-11-03T02:59:11.248Z,8.1
2017-11-03T03:00:13.623Z,8.1
2017-11-03T03:01:15.995Z,8
2017-11-03T03:02:18.359Z,8
2017-11-03T03:03:20.739Z,8
2017-11-03T03:04:23.125Z,8
2017-11-03T03:05:25.494Z,7.9
2017-11-03T03:06:27.866Z,7.9
2017-11-03T03:07:30.245Z,7.9
2017-11-03T03:08:32.614Z,7.8
2017-11-03T03:09:34.987Z,7.8
2017-11-03T03:10:37.356Z,7.8
2017-11-03T03:11:40.082Z,7.8
2017-11-03T03:12:42.472Z,7.8
2017-11-03T03:13:44.839Z,7.8
2017-11-03T03:14:47.218Z,7.7
2017-11-03T03:15:49.585Z,7.7
2017-11-03T03:16:51.968Z,7.6
2017-11-03T03:17:54.335Z,7.6
2017-11-03T03:18:56.699Z,7.6
2017-11-03T03:19:59.080Z,7.6
2017-11-03T03:21:01.449Z,7.6
2017-11-03T03:22:03.821Z,7.6
2017-11-03T03:23:06.219Z,7.5
2017-11-03T03:24:08.588Z,7.5
2017-11-03T03:25:10.962Z,7.4
2017-11-03T03:26:13.333Z,7.3
2017-11-03T03:27:15.706Z,7.3
2017-11-03T03:28:18.443Z,7.3
2017-11-03T03:29:20.815Z,7.3
2017-11-03T03:30:23.180Z,7.2
2017-11-03T03:31:25.553Z,7.2
2017-11-03T03:32:27.928Z,7.2
2017-11-03T03:33:30.301Z,7.1
2017-11-03T03:34:32.680Z,7.1
2017-11-03T03:35:35.044Z,7.1
2017-11-03T03:36:37.416Z,7.1
2017-11-03T03:37:39.805Z,7
2017-11-03T03:38:42.173Z,7
2017-11-03T03:39:44.546Z,6.9
2017-11-03T03:40:46.911Z,6.9
2017-11-03T03:41:49.290Z,6.9
2017-11-03T03:42:51.645Z,6.9
2017-11-03T03:43:54.026Z,6.8
2017-11-03T03:44:56.406Z,6.8
2017-11-03T03:45:58.780Z,6.8
2017-11-03T03:47:01.155Z,6.7
2017-11-03T03:48:03.529Z,6.7
2017-11-03T03:49:05.903Z,6.7
2017-11-03T03:50:08.282Z,6.7
2017-11-03T03:51:10.650Z,6.7
2017-11-03T03:52:13.009Z,6.7
2017-11-03T03:53:15.734Z,6.6
2017-11-03T03:54:18.106Z,6.6
2017-11-03T03:55:20.479Z,6.6
2017-11-03T03:56:22.849Z,6.6
2017-11-03T03:57:25.570Z,6.6
2017-11-03T03:58:27.942Z,6.6
2017-11-03T03:59:30.670Z,6.5
2017-11-03T04:00:33.043Z,6.5
2017-11-03T04:01:35.423Z,6.5
2017-11-03T04:02:37.790Z,6.5
2017-11-03T04:03:40.173Z,6.5
2017-11-03T04:04:42.554Z,6.5
2017-11-03T04:05:45.268Z,6.5
2017-11-03T04:06:47.647Z,6.4
2017-11-03T04:07:50.013Z,6.4
2017-11-03T04:08:52.391Z,6.4
2017-11-03T04:09:54.770Z,6.4
2017-11-03T04:10:57.474Z,6.3
2017-11-03T04:11:59.861Z,6.3
2017-11-03T04:13:02.231Z,6.3
2017-11-03T04:14:04.607Z,6.3
2017-11-03T04:15:06.983Z,6.3
2017-11-03T04:16:09.344Z,6.3
2017-11-03T04:17:11.718Z,6.2
2017-11-03T04:18:14.094Z,6.2
2017-11-03T04:19:16.461Z,6.2
2017-11-03T04:20:18.828Z,6.2
2017-11-03T04:21:21.209Z,6.2
2017-11-03T04:22:23.577Z,6.2
2017-11-03T04:23:25.950Z,6.2
2017-11-03T04:24:28.321Z,6.1
2017-11-03T04:25:30.677Z,6.1
2017-11-03T04:26:33.059Z,6.1
2017-11-03T04:27:35.429Z,6.1
2017-11-03T04:28:37.809Z,6.1
2017-11-03T04:29:40.187Z,6.1
2017-11-03T04:30:42.563Z,6.1
2017-11-03T04:31:44.926Z,6.1
2017-11-03T04:32:47.660Z,6
2017-11-03T04:33:50.028Z,6
2017-11-03T04:34:52.392Z,6
2017-11-03T04:35:54.764Z,6
2017-11-03T04:36:57.124Z,6
2017-11-03T04:37:59.501Z,6.1
2017-11-03T04:39:01.875Z,6.1
2017-11-03T04:40:04.600Z,6.1
2017-11-03T04:41:06.975Z,6.1
2017-11-03T04:42:09.342Z,6.1
2017-11-03T04:43:11.713Z,6.1
2017-11-03T04:44:14.427Z,6.1
2017-11-03T04:45:16.791Z,6.1
2017-11-03T04:46:19.170Z,6.2
2017-11-03T04:47:21.540Z,6.3
2017-11-03T04:48:23.921Z,6.2
2017-11-03T04:49:26.286Z,6.3
2017-11-03T04:50:28.669Z,6.3
2017-11-03T04:51:31.044Z,6.3
2017-11-03T04:52:33.415Z,6.3
2017-11-03T04:53:35.783Z,6.3
2017-11-03T04:54:38.151Z,6.4
2017-11-03T04:55:40.525Z,6.3
2017-11-03T04:56:42.890Z,6.3
2017-11-03T04:57:45.267Z,6.4
2017-11-03T04:58:47.985Z,6.4
2017-11-03T04:59:50.353Z,6.4
2017-11-03T05:00:52.745Z,6.4
2017-11-03T05:01:55.105Z,6.4
2017-11-03T05:02:57.474Z,6.5
2017-11-03T05:03:59.845Z,6.5
2017-11-03T05:05:02.218Z,6.5
2017-11-03T05:06:04.590Z,6.5
2017-11-03T05:07:06.975Z,6.6
2017-11-03T05:08:09.337Z,6.5
2017-11-03T05:09:11.709Z,6.6
2017-11-03T05:10:14.444Z,6.6
2017-11-03T05:11:16.817Z,6.6
2017-11-03T05:12:19.187Z,6.6
2017-11-03T05:13:21.565Z,6.6
2017-11-03T05:14:23.926Z,6.6
2017-11-03T05:15:26.300Z,6.6
2017-11-03T05:16:29.020Z,6.6
2017-11-03T05:17:31.398Z,6.6
2017-11-03T05:18:34.118Z,6.6
2017-11-03T05:19:36.492Z,6.7
2017-11-03T05:20:39.217Z,6.7
2017-11-03T05:21:41.945Z,6.7
2017-11-03T05:22:44.317Z,6.7
2017-11-03T05:23:46.692Z,6.7
2017-11-03T05:24:49.058Z,6.7
2017-11-03T05:25:51.434Z,6.7
2017-11-03T05:26:53.801Z,6.7
2017-11-03T05:27:56.175Z,6.7
2017-11-03T05:28:58.548Z,6.8
2017-11-03T05:30:00.923Z,6.8
2017-11-03T05:31:03.286Z,6.8
2017-11-03T05:32:05.669Z,6.8
2017-11-03T05:33:08.040Z,6.8
2017-11-03T05:34:10.767Z,6.9
2017-11-03T05:35:13.139Z,6.9
2017-11-03T05:36:15.860Z,6.9
2017-11-03T05:37:18.238Z,6.9
2017-11-03T05:38:20.608Z,6.9
2017-11-03T05:39:22.974Z,7
2017-11-03T05:40:25.336Z,7
2017-11-03T05:41:27.715Z,7
2017-11-03T05:42:30.083Z,7
2017-11-03T05:43:32.449Z,7
2017-11-03T05:44:34.829Z,7
2017-11-03T05:45:37.187Z,7.1
2017-11-03T05:46:39.559Z,7.1
2017-11-03T05:47:41.944Z,7.1
2017-11-03T05:48:44.298Z,7.1
2017-11-03T05:49:46.671Z,7.1
2017-11-03T05:50:49.045Z,7.1
2017-11-03T05:51:51.421Z,7.1
2017-11-03T05:52:53.797Z,7.1
2017-11-03T05:53:56.164Z,7.1
2017-11-03T05:54:58.537Z,7.1
2017-11-03T05:56:01.610Z,7.1
2017-11-03T05:57:03.982Z,7.2
2017-11-03T05:58:06.341Z,7.2
2017-11-03T05:59:09.070Z,7.2
2017-11-03T06:00:12.159Z,7.2
2017-11-03T06:01:14.527Z,7.2
2017-11-03T06:02:16.898Z,7.2
2017-11-03T06:03:19.271Z,7.2
2017-11-03T06:04:21.643Z,7.2
2017-11-03T06:05:24.022Z,7.3
2017-11-03T06:06:26.391Z,7.3
2017-11-03T06:07:28.749Z,7.3
2017-11-03T06:08:31.829Z,7.3
2017-11-03T06:09:34.207Z,7.3
2017-11-03T06:10:36.569Z,7.3
2017-11-03T06:11:38.953Z,7.3
2017-11-03T06:12:42.055Z,7.3
2017-11-03T06:13:44.431Z,7.4
2017-11-03T06:14:46.810Z,7.3
2017-11-03T06:15:49.190Z,7.4
2017-11-03T06:16:51.554Z,7.4
2017-11-03T06:17:53.924Z,7.4
2017-11-03T06:18:56.291Z,7.5
2017-11-03T06:19:58.668Z,7.5
2017-11-03T06:21:01.036Z,7.5
2017-11-03T06:22:03.414Z,7.5
2017-11-03T06:23:05.780Z,7.5
2017-11-03T06:24:08.163Z,7.5
2017-11-03T06:25:10.529Z,7.6
2017-11-03T06:26:12.906Z,7.6
2017-11-03T06:27:15.274Z,7.6
2017-11-03T06:28:17.647Z,7.6
2017-11-03T06:29:20.410Z,7.6
2017-11-03T06:30:22.769Z,7.6
2017-11-03T06:31:25.139Z,7.6
2017-11-03T06:32:27.859Z,7.6
2017-11-03T06:33:30.233Z,7.6
2017-11-03T06:34:32.600Z,7.6
2017-11-03T06:35:35.342Z,7.6
2017-11-03T06:36:37.712Z,7.6
2017-11-03T06:37:40.071Z,7.7
2017-11-03T06:38:42.458Z,7.7
2017-11-03T06:39:44.838Z,7.7
2017-11-03T06:40:47.195Z,7.7
2017-11-03T06:41:49.570Z,7.7
2017-11-03T06:42:51.950Z,7.8
2017-11-03T06:43:54.326Z,7.8
2017-11-03T06:44:56.704Z,7.8
2017-11-03T06:45:59.099Z,7.8
2017-11-03T06:47:01.438Z,7.8
2017-11-03T06:48:03.831Z,7.8
2017-11-03T06:49:06.569Z,7.8
2017-11-03T06:50:08.932Z,7.8
2017-11-03T06:51:11.309Z,7.8
2017-11-03T06:52:14.033Z,7.8
2017-11-03T06:53:16.409Z,7.8
2017-11-03T06:54:18.786Z,7.8
2017-11-03T06:55:21.153Z,7.9
2017-11-03T06:56:23.530Z,7.9
2017-11-03T06:57:25.925Z,7.9
2017-11-03T06:58:28.283Z,7.9
2017-11-03T06:59:30.652Z,8
2017-11-03T07:00:33.032Z,8.1
2017-11-03T07:01:35.401Z,8.1
2017-11-03T07:02:37.793Z,8.2
2017-11-03T07:03:40.163Z,8.2
2017-11-03T07:04:42.527Z,8.2
2017-11-03T07:05:44.901Z,8.2
2017-11-03T07:06:47.272Z,8.2
2017-11-03T07:07:49.653Z,8.2
2017-11-03T07:08:52.024Z,8.2
2017-11-03T07:09:54.397Z,8.2
2017-11-03T07:10:56.781Z,8.2
2017-11-03T07:11:59.145Z,8.2
2017-11-03T07:13:01.517Z,8.2
2017-11-03T07:14:03.907Z,8.2
2017-11-03T07:15:06.278Z,8.3
2017-11-03T07:16:08.653Z,8.3
2017-11-03T07:17:11.015Z,8.3
2017-11-03T07:18:13.737Z,8.3
2017-11-03T07:19:16.117Z,8.3
2017-11-03T07:20:18.498Z,8.3
2017-11-03T07:21:21.215Z,8.4
2017-11-03T07:22:23.941Z,8.4
2017-11-03T07:23:26.695Z,8.4
2017-11-03T07:24:29.071Z,8.4
2017-11-03T07:25:31.447Z,8.5
2017-11-03T07:26:33.809Z,8.5
2017-11-03T07:27:36.190Z,8.5
2017-11-03T07:28:38.575Z,8.5
2017-11-03T07:29:40.945Z,8.6
2017-11-03T07:30:43.665Z,8.6
2017-11-03T07:31:46.032Z,8.6
2017-11-03T07:32:48.404Z,8.6
2017-11-03T07:33:50.785Z,8.6
2017-11-03T07:34:53.157Z,8.6
2017-11-03T07:35:55.516Z,8.6
2017-11-03T07:36:57.894Z,8.7
2017-11-03T07:38:00.277Z,8.7
2017-11-03T07:39:02.659Z,8.7
2017-11-03T07:40:05.029Z,8.8
2017-11-03T07:41:07.403Z,8.8
2017-11-03T07:42:09.774Z,8.7
2017-11-03T07:43:12.152Z,8.7
2017-11-03T07:44:14.521Z,8.7
2017-11-03T07:45:16.908Z,8.8
2017-11-03T07:46:19.271Z,8.8
2017-11-03T07:47:21.659Z,8.8
2017-11-03T07:48:24.024Z,8.8
2017-11-03T07:49:26.401Z,8.8
2017-11-03T07:50:28.775Z,8.8
2017-11-03T07:51:31.150Z,8.9
2017-11-03T07:52:33.516Z,8.8
2017-11-03T07:53:35.896Z,8.8
2017-11-03T07:54:38.264Z,8.8
2017-11-03T07:55:40.640Z,8.8
2017-11-03T07:56:43.017Z,8.9
2017-11-03T07:57:45.389Z,8.8
2017-11-03T07:58:47.758Z,8.9
2017-11-03T07:59:50.140Z,8.9
2017-11-03T08:00:52.494Z,8.9
2017-11-03T08:01:54.888Z,9
2017-11-03T08:02:57.258Z,9
2017-11-03T08:03:59.635Z,9
2017-11-03T08:05:02.008Z,9.1
2017-11-03T08:06:04.386Z,9.1
2017-11-03T08:07:06.761Z,9
2017-11-03T08:08:09.158Z,9
2017-11-03T08:09:11.519Z,9
2017-11-03T08:10:13.911Z,9
2017-11-03T08:11:16.265Z,9
2017-11-03T08:12:18.646Z,9
2017-11-03T08:13:21.021Z,9.1
2017-11-03T08:14:23.401Z,9.1
2017-11-03T08:15:25.778Z,9.1
2017-11-03T08:16:28.153Z,9.1
2017-11-03T08:17:30.529Z,9
2017-11-03T08:18:32.912Z,9.1
2017-11-03T08:19:35.290Z,9.1
2017-11-03T08:20:37.679Z,9
2017-11-03T08:21:40.058Z,9.1
2017-11-03T08:22:42.438Z,9.1
2017-11-03T08:23:44.818Z,9.1
2017-11-03T08:24:47.546Z,9.1
2017-11-03T08:25:49.925Z,9.1
2017-11-03T08:26:52.295Z,9.1
2017-11-03T08:27:54.687Z,9.1
2017-11-03T08:28:57.055Z,9.2
2017-11-03T08:29:59.420Z,9.2
2017-11-03T08:31:01.811Z,9.2
2017-11-03T08:32:04.176Z,9.2
2017-11-03T08:33:06.890Z,9.2
2017-11-03T08:34:09.273Z,9.2
2017-11-03T08:35:11.636Z,9.2
2017-11-03T08:36:14.013Z,9.2
2017-11-03T08:37:16.417Z,9.2
2017-11-03T08:38:18.770Z,9.2
2017-11-03T08:39:21.144Z,9.2
2017-11-03T08:40:23.513Z,9.3
2017-11-03T08:41:25.891Z,9.3
2017-11-03T08:42:28.249Z,9.3
2017-11-03T08:43:30.626Z,9.3
2017-11-03T08:44:33.012Z,9.4
2017-11-03T08:45:35.403Z,9.4
2017-11-03T08:46:37.782Z,9.4
2017-11-03T08:47:40.151Z,9.4
2017-11-03T08:48:42.529Z,9.4
2017-11-03T08:49:44.914Z,9.4
2017-11-03T08:50:47.288Z,9.4
2017-11-03T08:51:49.653Z,9.4
2017-11-03T08:52:52.049Z,9.4
2017-11-03T08:53:54.435Z,9.5
2017-11-03T08:54:57.163Z,9.5
2017-11-03T08:55:59.538Z,9.5
2017-11-03T08:57:01.927Z,9.5
2017-11-03T08:58:04.321Z,9.5
2017-11-03T08:59:06.707Z,9.5
2017-11-03T09:00:09.095Z,9.6
2017-11-03T09:01:11.487Z,9.6
2017-11-03T09:02:13.861Z,9.6
2017-11-03T09:03:16.234Z,9.6
2017-11-03T09:04:18.607Z,9.6
2017-11-03T09:05:20.982Z,9.6
2017-11-03T09:06:23.365Z,9.6
2017-11-03T09:07:25.727Z,9.6
2017-11-03T09:08:28.120Z,9.6
2017-11-03T09:09:30.492Z,9.6
2017-11-03T09:10:33.255Z,9.7
2017-11-03T09:11:35.637Z,9.7
2017-11-03T09:12:38.021Z,9.9
2017-11-03T09:13:40.391Z,10.1
2017-11-03T09:14:42.791Z,10.3
2017-11-03T09:15:45.153Z,10.5
2017-11-03T09:16:47.524Z,10.7
2017-11-03T09:17:49.906Z,10.8
2017-11-03T09:18:52.283Z,10.8
2017-11-03T09:19:54.998Z,10.7
2017-11-03T09:20:57.377Z,10.6
2017-11-03T09:22:00.098Z,10.6
2017-11-03T09:23:02.479Z,10.6
2017-11-03T09:24:04.849Z,10.6
2017-11-03T09:25:07.219Z,10.5
2017-11-03T09:26:09.608Z,10.5
2017-11-03T09:27:11.987Z,10.4
2017-11-03T09:28:14.367Z,10.3
2017-11-03T09:29:16.753Z,10.4
2017-11-03T09:30:19.138Z,10.4
2017-11-03T09:31:21.509Z,10.4
2017-11-03T09:32:23.887Z,10.4
2017-11-03T09:33:26.256Z,10.3
2017-11-03T09:34:28.628Z,10.4
2017-11-03T09:35:30.998Z,10.3
2017-11-03T09:36:33.372Z,10.3
2017-11-03T09:37:35.750Z,10.3
2017-11-03T09:38:38.125Z,10.2
2017-11-03T09:39:40.513Z,10.2
2017-11-03T09:40:42.891Z,10.3
2017-11-03T09:41:45.252Z,10.2
2017-11-03T09:42:47.631Z,10.4
2017-11-03T09:43:50.005Z,10.6
2017-11-03T09:44:52.377Z,10.8
2017-11-03T09:45:54.759Z,10.9
2017-11-03T09:46:57.131Z,11.1
2017-11-03T09:47:59.501Z,11
2017-11-03T09:49:01.888Z,10.9
2017-11-03T09:50:04.275Z,10.9
2017-11-03T09:51:06.659Z,10.8
2017-11-03T09:52:09.039Z,10.8
2017-11-03T09:53:11.406Z,10.8
2017-11-03T09:54:13.790Z,10.6
2017-11-03T09:55:16.172Z,10.6
2017-11-03T09:56:18.551Z,10.6
2017-11-03T09:57:20.938Z,10.5
2017-11-03T09:58:23.308Z,10.5
2017-11-03T09:59:25.679Z,10.4
2017-11-03T10:00:28.426Z,10.3
2017-11-03T10:01:30.894Z,10.3
2017-11-03T10:02:33.414Z,10.2
2017-11-03T10:03:41.570Z,10.3
2017-11-03T10:04:43.953Z,10.3
2017-11-03T10:05:46.334Z,10.2
2017-11-03T10:06:54.656Z,10.2
2017-11-03T10:08:07.721Z,10.1
2017-11-03T10:09:11.446Z,10.1
2017-11-03T10:10:15.828Z,10
2017-11-03T10:11:25.807Z,10
2017-11-03T10:12:29.601Z,9.9
2017-11-03T10:13:35.078Z,9.9
2017-11-03T10:14:40.616Z,9.9
2017-11-03T10:15:45.998Z,9.9
2017-11-03T10:16:50.837Z,10
2017-11-03T10:18:09.404Z,10
2017-11-03T10:19:28.532Z,10
2017-11-03T10:20:46.549Z,10.1
2017-11-03T10:21:54.548Z,10.1
2017-11-03T10:23:16.830Z,10.1
2017-11-03T10:24:28.330Z,10.2
2017-11-03T10:25:35.805Z,10.4
2017-11-03T10:26:45.745Z,10.4
2017-11-03T10:28:03.206Z,10.4
2017-11-03T10:29:06.693Z,10.6
2017-11-03T10:30:29.224Z,10.6
2017-11-03T10:31:44.873Z,10.5
2017-11-03T10:33:08.195Z,10.4
2017-11-03T10:34:32.034Z,10.4
2017-11-03T10:35:45.653Z,10.4
2017-11-03T10:36:55.821Z,10.5
2017-11-03T10:38:05.294Z,10.5
2017-11-03T10:39:08.937Z,10.4
2017-11-03T10:40:11.314Z,10.5
2017-11-03T10:41:13.693Z,10.6
2017-11-03T10:42:16.079Z,10.7
2017-11-03T10:43:18.449Z,10.7
2017-11-03T10:44:20.825Z,10.6
2017-11-03T10:45:23.207Z,10.6
2017-11-03T10:46:25.929Z,10.7
2017-11-03T10:47:28.301Z,10.9
2017-11-03T10:48:30.681Z,11
2017-11-03T10:49:33.051Z,10.8
2017-11-03T10:50:35.435Z,10.6
2017-11-03T10:51:37.813Z,10.6
2017-11-03T10:52:40.178Z,10.9
2017-11-03T10:53:42.561Z,11.2
2017-11-03T10:54:45.284Z,11.3
2017-11-03T10:55:47.664Z,11.7
2017-11-03T10:56:50.045Z,11.8
2017-11-03T10:57:52.432Z,11.8
2017-11-03T10:58:54.805Z,11.7
2017-11-03T10:59:57.183Z,11.6
2017-11-03T11:00:59.909Z,11.6
2017-11-03T11:02:02.272Z,11.5
2017-11-03T11:03:04.659Z,11.5
2017-11-03T11:04:07.034Z,11.6
2017-11-03T11:05:09.418Z,11.7
2017-11-03T11:06:11.807Z,11.8
2017-11-03T11:07:14.189Z,11.7
2017-11-03T11:08:16.569Z,11.9
2017-11-03T11:09:18.956Z,12
2017-11-03T11:10:21.329Z,12.1
2017-11-03T11:11:23.703Z,12.1
2017-11-03T11:12:26.078Z,11.9
2017-11-03T11:13:28.466Z,11.8
2017-11-03T11:14:30.837Z,11.7
2017-11-03T11:15:33.213Z,11.9
2017-11-03T11:16:35.596Z,11.8
2017-11-03T11:17:37.977Z,11.8
2017-11-03T11:18:40.368Z,11.7
2017-11-03T11:19:42.748Z,11.7
2017-11-03T11:20:45.129Z,11.6
2017-11-03T11:21:47.505Z,11.6
2017-11-03T11:22:49.887Z,11.6
2017-11-03T11:23:52.628Z,11.5
2017-11-03T11:24:55.004Z,11.5
2017-11-03T11:25:57.735Z,11.4
2017-11-03T11:27:00.110Z,11.3
2017-11-03T11:28:02.506Z,11.3
2017-11-03T11:29:04.877Z,11.3
2017-11-03T11:30:07.608Z,11.2
2017-11-03T11:31:09.979Z,11.3
2017-11-03T11:32:12.358Z,11.4
2017-11-03T11:33:14.744Z,11.4
2017-11-03T11:34:17.135Z,11.3
2017-11-03T11:35:19.499Z,11.1
2017-11-03T11:36:21.882Z,10.9
2017-11-03T11:37:24.271Z,10.9
2017-11-03T11:38:27.351Z,10.9
2017-11-03T11:39:29.729Z,10.7
2017-11-03T11:40:32.117Z,10.8
2017-11-03T11:41:34.492Z,10.6
2017-11-03T11:42:36.863Z,10.5
2017-11-03T11:43:39.245Z,10.5
2017-11-03T11:44:41.621Z,10.5
2017-11-03T11:45:44.011Z,10.5
2017-11-03T11:46:46.380Z,10.4
2017-11-03T11:47:48.758Z,10.4
2017-11-03T11:48:51.138Z,10.3
2017-11-03T11:49:53.531Z,10.3
2017-11-03T11:50:55.900Z,10.2
2017-11-03T11:51:58.268Z,10.1
2017-11-03T11:53:00.639Z,10.1
2017-11-03T11:54:03.017Z,9.9
2017-11-03T11:55:05.745Z,9.8
2017-11-03T11:56:08.123Z,9.9
2017-11-03T11:57:10.508Z,9.9
2017-11-03T11:58:12.882Z,9.9
2017-11-03T11:59:15.266Z,9.8
2017-11-03T12:00:17.648Z,9.8
2017-11-03T12:01:20.352Z,9.7
2017-11-03T12:02:22.738Z,9.7
2017-11-03T12:03:25.113Z,9.7
2017-11-03T12:04:27.489Z,9.7
2017-11-03T12:05:29.873Z,9.7
2017-11-03T12:06:32.245Z,9.6
2017-11-03T12:07:34.606Z,9.6
2017-11-03T12:08:36.992Z,9.7
2017-11-03T12:09:39.356Z,9.7
2017-11-03T12:10:41.745Z,9.7
2017-11-03T12:11:44.117Z,9.7
2017-11-03T12:12:46.491Z,9.7
2017-11-03T12:13:49.212Z,9.6
2017-11-03T12:14:51.590Z,9.6
2017-11-03T12:15:53.956Z,9.6
2017-11-03T12:16:56.340Z,9.6
2017-11-03T12:17:59.050Z,9.5
2017-11-03T12:19:01.434Z,9.5
2017-11-03T12:20:04.152Z,9.5
2017-11-03T12:21:06.528Z,9.6
2017-11-03T12:22:08.902Z,9.5
2017-11-03T12:23:11.630Z,9.5
2017-11-03T12:24:14.055Z,9.6
2017-11-03T12:25:16.436Z,9.6
2017-11-03T12:26:19.165Z,9.6
2017-11-03T12:27:21.535Z,9.6
2017-11-03T12:28:23.910Z,9.6
2017-11-03T12:29:26.285Z,9.7
2017-11-03T12:30:28.654Z,9.6
2017-11-03T12:31:31.042Z,9.6
2017-11-03T12:32:33.398Z,9.7
2017-11-03T12:33:35.777Z,9.7
2017-11-03T12:34:38.152Z,9.6
2017-11-03T12:35:40.524Z,9.6
2017-11-03T12:36:42.899Z,9.5
2017-11-03T12:37:45.274Z,9.5
2017-11-03T12:38:47.644Z,9.4
2017-11-03T12:39:50.018Z,9.4
2017-11-03T12:40:52.392Z,9.4
2017-11-03T12:41:54.779Z,9.4
2017-11-03T12:42:57.495Z,9.4
2017-11-03T12:43:59.866Z,9.3
2017-11-03T12:45:02.242Z,9.3
2017-11-03T12:46:04.616Z,9.3
2017-11-03T12:47:06.991Z,9.3
2017-11-03T12:48:09.365Z,9.3
2017-11-03T12:49:11.740Z,9.2
2017-11-03T12:50:14.121Z,9.2
2017-11-03T12:51:16.505Z,9.2
2017-11-03T12:52:18.878Z,9.2
2017-11-03T12:53:21.258Z,9.2
2017-11-03T12:54:23.628Z,9.2
2017-11-03T12:55:25.995Z,9.2
2017-11-03T12:56:28.383Z,9.2
2017-11-03T12:57:30.758Z,9.2
2017-11-03T12:58:33.124Z,9.3
2017-11-03T12:59:35.504Z,9.2
2017-11-03T13:00:37.891Z,9.2
2017-11-03T13:01:40.517Z,9.3
2017-11-03T13:02:43.705Z,9.2
2017-11-03T13:03:46.261Z,9.2
2017-11-03T13:04:48.916Z,9.2
2017-11-03T13:05:52.339Z,9.2
2017-11-03T13:06:57.514Z,9.1
2017-11-03T13:08:00.521Z,9.1
2017-11-03T13:09:03.028Z,9.2
2017-11-03T13:10:05.674Z,9.2
2017-11-03T13:11:08.634Z,9.2
2017-11-03T13:12:11.131Z,9.2
2017-11-03T13:13:13.621Z,9.2
2017-11-03T13:14:16.245Z,9.2
2017-11-03T13:15:18.714Z,9.2
2017-11-03T13:16:21.136Z,9.2
2017-11-03T13:17:23.499Z,9.2
2017-11-03T13:18:25.916Z,9.1
2017-11-03T13:19:28.338Z,9.1
2017-11-03T13:20:30.753Z,9.1
2017-11-03T13:21:33.134Z,9.1
2017-11-03T13:22:36.144Z,9
2017-11-03T13:23:38.518Z,9.1
2017-11-03T13:24:41.246Z,9.1
2017-11-03T13:25:43.838Z,9.1
2017-11-03T13:26:46.708Z,9.1
2017-11-03T13:27:49.085Z,9.1
2017-11-03T13:28:51.467Z,9.1
2017-11-03T13:29:53.841Z,9.1
2017-11-03T13:30:56.214Z,9.2
2017-11-03T13:31:58.928Z,9.2
2017-11-03T13:33:01.333Z,9.2
2017-11-03T13:34:03.710Z,9.2
2017-11-03T13:35:06.094Z,9.3
2017-11-03T13:36:08.464Z,9.3
2017-11-03T13:37:10.851Z,9.3
2017-11-03T13:38:13.242Z,9.3
2017-11-03T13:39:15.612Z,9.3
2017-11-03T13:40:18.950Z,9.4
2017-11-03T13:41:22.295Z,9.4
2017-11-03T13:42:25.198Z,9.4
2017-11-03T13:43:27.913Z,9.4
2017-11-03T13:44:30.633Z,9.4
2017-11-03T13:45:33.202Z,9.4
2017-11-03T13:46:35.592Z,9.5
2017-11-03T13:47:38.354Z,9.5
2017-11-03T13:48:41.098Z,9.6
2017-11-03T13:49:43.503Z,9.5
2017-11-03T13:50:45.976Z,9.5
2017-11-03T13:51:48.346Z,9.5
2017-11-03T13:52:51.083Z,9.5
2017-11-03T13:53:53.458Z,9.5
2017-11-03T13:54:56.211Z,9.5
2017-11-03T13:55:58.597Z,9.5
2017-11-03T13:57:01.313Z,9.6
2017-11-03T13:58:03.691Z,9.6
2017-11-03T13:59:06.063Z,9.6
2017-11-03T14:00:08.659Z,9.6
2017-11-03T14:01:11.030Z,9.6
2017-11-03T14:02:13.407Z,9.6
2017-11-03T14:03:15.770Z,9.4
2017-11-03T14:04:18.157Z,9.4
2017-11-03T14:05:20.535Z,9.4
2017-11-03T14:06:22.909Z,9.4
2017-11-03T14:07:25.287Z,9.3
2017-11-03T14:08:28.005Z,9.3
2017-11-03T14:09:30.379Z,9.3
2017-11-03T14:10:36.821Z,9.3
2017-11-03T14:11:41.172Z,9.2
2017-11-03T14:12:43.587Z,9.2
2017-11-03T14:13:45.993Z,9.1
2017-11-03T14:14:48.376Z,9.2
2017-11-03T14:15:51.098Z,9.2
2017-11-03T14:16:53.473Z,9.2
2017-11-03T14:17:55.855Z,9.2
2017-11-03T14:18:58.577Z,9.2
2017-11-03T14:20:00.950Z,9.2
2017-11-03T14:21:03.323Z,9.1